MiSS Krissy — WDC8127 — position and weather

sailwx.info

Track history (hours):
 
Tides and Currents Weather Stations Pressure Air Temp Water Temp Dewpoint Dewpoint Depression Visibility Wind Speed Wind Dir Waves Ship Positions

MiSS Krissy

Owner: Misener Marine Construction Inc., Tampa, FL. More information available from US FCC via Universal Licensing System and Coast Guard Vessel Documentation Center.

Last reported at 2018-May-15 04:32 UTC. Time now 2018-Aug-14 23:43 UTC.
Position N 27°53' W 082°32'.
Warning: this ship's position is months out of date.

Length 14 m.

Type: Tug. MMSI: 367082050.

Date/timePositionNaut miles runAvg speedWind from/ knotsBaromVisibWave heightAir tempDewpointWater temp
2018-May-15 04:32N 27°53' W 082°32'0 0.0
2018-May-15 04:29N 27°53' W 082°32'0 0.0
2018-May-15 04:00N 27°53' W 082°32'0 0.0
2018-May-15 03:30N 27°53' W 082°32'0 0.0
2018-May-15 03:00N 27°53' W 082°32'0 0.0
2018-May-15 02:30N 27°53' W 082°32'0 0.0
2018-May-15 02:00N 27°53' W 082°32'0 0.0
2018-May-15 01:30N 27°53' W 082°32'0 0.0
2018-May-15 01:01N 27°53' W 082°32'0 0.0
2018-May-15 00:30N 27°53' W 082°32'0 0.0
2018-May-15 00:00N 27°53' W 082°32'0 0.0
2018-May-14 23:30N 27°53' W 082°32'0 0.0
2018-May-14 23:00N 27°53' W 082°32'0 0.0
2018-May-14 22:30N 27°53' W 082°32'0 0.0
2018-May-14 22:00N 27°53' W 082°32'0 0.0
2018-May-14 21:30N 27°53' W 082°32'0 0.0
2018-May-14 21:01N 27°53' W 082°32'0 0.0
2018-May-14 20:28N 27°53' W 082°32'0 0.0
2018-May-14 20:00N 27°53' W 082°32'0 0.0
2018-May-14 19:31N 27°53' W 082°32'0 0.0
2018-May-14 18:59N 27°53' W 082°32'0 0.0
2018-May-14 18:30N 27°53' W 082°32'0 0.0
2018-May-14 18:01N 27°53' W 082°32'0 0.0
2018-May-14 12:35N 27°53' W 082°32'0 0.1
2018-May-14 12:30N 27°53' W 082°32'0 0.0
2018-May-14 11:55N 27°53' W 082°32'  
2018-May-11 16:17N 27°53' W 082°32'0 0.0
2018-May-11 16:00N 27°53' W 082°32'0 0.0
2018-May-11 15:30N 27°53' W 082°32'1 2.7
2018-May-11 15:00N 27°52' W 082°33'1 1.2
2018-May-11 14:30N 27°53' W 082°33'1 1.5
2018-May-11 14:00N 27°53' W 082°32'0 0.0
2018-May-11 13:30N 27°53' W 082°32'0 0.0
2018-May-11 13:00N 27°53' W 082°32'0 0.0
2018-May-11 12:30N 27°53' W 082°32'0 0.8
2018-May-11 12:00N 27°53' W 082°32'0 0.0
2018-May-11 11:30N 27°53' W 082°32'0 0.0
2018-May-10 12:58N 27°53' W 082°32'0 0.2
2018-May-10 12:30N 27°53' W 082°32'0 0.2
2018-May-10 12:00N 27°53' W 082°32'0 0.0
2018-May-09 20:22N 27°53' W 082°32'1 3.1
2018-May-09 20:00N 27°52' W 082°33'3 5.3
2018-May-09 19:31N 27°50' W 082°34'3 5.9
2018-May-09 19:00N 27°47' W 082°35'3 5.8
2018-May-09 18:30N 27°44' W 082°36'3 5.6
2018-May-09 17:57N 27°41' W 082°37'4 0.1
2018-May-07 19:26N 27°45' W 082°36'4 5.6
2018-May-07 18:38N 27°49' W 082°34'1 6.1
2018-May-07 18:29N 27°50' W 082°34'3 6.1
2018-May-07 18:00N 27°53' W 082°33'0 0.7
2018-May-07 17:29N 27°53' W 082°32'0 0.0
2018-May-07 17:00N 27°53' W 082°32'0 0.0
2018-May-07 16:30N 27°53' W 082°32'0 0.9
2018-May-07 16:00N 27°53' W 082°33'3 5.0
2018-May-07 15:29N 27°50' W 082°34'2 4.3
2018-May-07 15:00N 27°48' W 082°33'3 5.2
2018-May-07 14:30N 27°48' W 082°30'3 5.1
2018-May-07 14:00N 27°49' W 082°27'2 3.8
2018-May-07 13:30N 27°48' W 082°25'1 2.5
2018-May-07 13:00N 27°48' W 082°24'0 0.0
2018-May-07 12:30N 27°48' W 082°24'0 0.1
2018-May-07 12:00N 27°48' W 082°24'  
Track history (hours):
 
Tides and Currents Weather Stations Pressure Air Temp Water Temp Dewpoint Dewpoint Depression Visibility Wind Speed Wind Dir Waves Ship Positions

MiSS Krissy

Owner: Misener Marine Construction Inc., Tampa, FL. More information available from US FCC via Universal Licensing System and Coast Guard Vessel Documentation Center.

Last reported at 2018-May-15 04:32 UTC. Time now 2018-Aug-14 23:43 UTC.
Position N 27°53' W 082°32'.
Warning: this ship's position is months out of date.

Length 14 m.

Type: Tug. MMSI: 367082050.

Date/timePositionNaut miles runAvg speedWind from/ knotsBaromVisibWave heightAir tempDewpointWater temp
2018-May-15 04:32N 27°53' W 082°32'0 0.0
2018-May-15 04:29N 27°53' W 082°32'0 0.0
2018-May-15 04:00N 27°53' W 082°32'0 0.0
2018-May-15 03:30N 27°53' W 082°32'0 0.0
2018-May-15 03:00N 27°53' W 082°32'0 0.0
2018-May-15 02:30N 27°53' W 082°32'0 0.0
2018-May-15 02:00N 27°53' W 082°32'0 0.0
2018-May-15 01:30N 27°53' W 082°32'0 0.0
2018-May-15 01:01N 27°53' W 082°32'0 0.0
2018-May-15 00:30N 27°53' W 082°32'0 0.0
2018-May-15 00:00N 27°53' W 082°32'0 0.0
2018-May-14 23:30N 27°53' W 082°32'0 0.0
2018-May-14 23:00N 27°53' W 082°32'0 0.0
2018-May-14 22:30N 27°53' W 082°32'0 0.0
2018-May-14 22:00N 27°53' W 082°32'0 0.0
2018-May-14 21:30N 27°53' W 082°32'0 0.0
2018-May-14 21:01N 27°53' W 082°32'0 0.0
2018-May-14 20:28N 27°53' W 082°32'0 0.0
2018-May-14 20:00N 27°53' W 082°32'0 0.0
2018-May-14 19:31N 27°53' W 082°32'0 0.0
2018-May-14 18:59N 27°53' W 082°32'0 0.0
2018-May-14 18:30N 27°53' W 082°32'0 0.0
2018-May-14 18:01N 27°53' W 082°32'0 0.0
2018-May-14 12:35N 27°53' W 082°32'0 0.1
2018-May-14 12:30N 27°53' W 082°32'0 0.0
2018-May-14 11:55N 27°53' W 082°32'  
2018-May-11 16:17N 27°53' W 082°32'0 0.0
2018-May-11 16:00N 27°53' W 082°32'0 0.0
2018-May-11 15:30N 27°53' W 082°32'1 2.7
2018-May-11 15:00N 27°52' W 082°33'1 1.2
2018-May-11 14:30N 27°53' W 082°33'1 1.5
2018-May-11 14:00N 27°53' W 082°32'0 0.0
2018-May-11 13:30N 27°53' W 082°32'0 0.0
2018-May-11 13:00N 27°53' W 082°32'0 0.0
2018-May-11 12:30N 27°53' W 082°32'0 0.8
2018-May-11 12:00N 27°53' W 082°32'0 0.0
2018-May-11 11:30N 27°53' W 082°32'0 0.0
2018-May-10 12:58N 27°53' W 082°32'0 0.2
2018-May-10 12:30N 27°53' W 082°32'0 0.2
2018-May-10 12:00N 27°53' W 082°32'0 0.0
2018-May-09 20:22N 27°53' W 082°32'1 3.1
2018-May-09 20:00N 27°52' W 082°33'3 5.3
2018-May-09 19:31N 27°50' W 082°34'3 5.9
2018-May-09 19:00N 27°47' W 082°35'3 5.8
2018-May-09 18:30N 27°44' W 082°36'3 5.6
2018-May-09 17:57N 27°41' W 082°37'4 0.1
2018-May-07 19:26N 27°45' W 082°36'4 5.6
2018-May-07 18:38N 27°49' W 082°34'1 6.1
2018-May-07 18:29N 27°50' W 082°34'3 6.1
2018-May-07 18:00N 27°53' W 082°33'0 0.7
2018-May-07 17:29N 27°53' W 082°32'0 0.0
2018-May-07 17:00N 27°53' W 082°32'0 0.0
2018-May-07 16:30N 27°53' W 082°32'0 0.9
2018-May-07 16:00N 27°53' W 082°33'3 5.0
2018-May-07 15:29N 27°50' W 082°34'2 4.3
2018-May-07 15:00N 27°48' W 082°33'3 5.2
2018-May-07 14:30N 27°48' W 082°30'3 5.1
2018-May-07 14:00N 27°49' W 082°27'2 3.8
2018-May-07 13:30N 27°48' W 082°25'1 2.5
2018-May-07 13:00N 27°48' W 082°24'0 0.0
2018-May-07 12:30N 27°48' W 082°24'0 0.1
2018-May-07 12:00N 27°48' W 082°24'  

Dump ship's entire track history